Airfield :
LOGIN :

Register | Disclaimer

   EN    FR    IT 

 










Legend :    VFR   Marginal VFR   IFR   Intensive IFR   Very Intensive IFR
Visi :
Ceiling :
>= 8 km
>= 3000ft
5 to 8 km
1000 to 3000 ft
1500m to 5 km
500 to 1000 ft
800 to 1500m
200 to 500 ft
< 800m
< 200 ft
Symbols :   Thunderstorms  Fog  Heavy snow  Heavy precipitations  Wind > 20 kt
SIGMETs :     Misc.  Thunderstorms  Icing  Turbulence  Mountain Waves  Volcanic Ashes







- Airport Elevation : 461 ft
- IATA code : WIE


ETOU - Wiesbaden Army

CURRENT METAR :
  • 112226Z AUTO 27005KT 9999 SCT022 OVC070 04/M02 A3021 RMK AO2 SLP238 $

EXPIRED METARs :
  • 112156Z AUTO 29005KT 9999 BKN022 OVC070 04/M02 A3022 RMK AO2 BKN V OVC CIG 021 RWY07 SLP242 T00381020 $
  • 112136Z AUTO 25003KT 9999 BKN021 OVC070 04/M02 A3021 RMK AO2 CIG 021V070 SLP238 $
  • 112056Z AUTO 29004KT 9999 FEW020 OVC070 04/M02 A3021 RMK AO2 SLP238 T00381018 50000 $
  • 111956Z AUTO 32006KT 9999 OVC060 04/M02 A3021 RMK AO2 SLP238 T00421018 $

TAF TAF ETOU
Valid from the 11 at 20:00 until the 13 at 02:00 UTC


112010Z 1120/1302 31009KT 9999 FEW070 QNH3020INS
BECMG 1201/1202 VRB06KT 9999 FEW015 BKN040 620406 QNH3022INS
BECMG 1208/1209 VRB06KT 9999 SCT040 QNH3014INS TX05/1214Z TN01/1207Z
No reported NOTAMs for that airfield.



MET'MAP, your aeronautical weather chart ! - Copyright ORBIFLY December 2007 - Disclaimer

ORBIFLY MET'MAP TEAM :

Programming & Development : Alexandra Zaïnal
Concept & Development : Baudouin d'Aumeries
Co-Development & Prog : Marc-Olivier Méhu
Technical & hardware support : Manuel Goepfert

Contact : metmap@orbifly.com




SOURCES & CREDITS :

   NOAA